createdAt,value
2018-12-20T00:04:10.713Z,26.53
2018-12-20T00:09:15.801Z,25.47
2018-12-20T00:14:20.863Z,27.83
2018-12-20T00:19:25.855Z,26.60
2018-12-20T00:24:30.768Z,25.40
2018-12-20T00:29:35.487Z,26.70
2018-12-20T00:34:40.367Z,24.87
2018-12-20T00:39:45.309Z,25.20
2018-12-20T00:44:50.297Z,25.17
2018-12-20T00:49:55.140Z,26.30
2018-12-20T00:54:59.958Z,26.00
2018-12-20T01:00:07.501Z,24.37
2018-12-20T01:05:12.588Z,23.47
2018-12-20T01:10:17.791Z,27.17
2018-12-20T01:15:22.755Z,26.43
2018-12-20T01:20:27.927Z,26.23
2018-12-20T01:25:32.906Z,26.20
2018-12-20T01:30:37.870Z,27.43
2018-12-20T01:35:43.029Z,25.33
2018-12-20T01:40:48.129Z,27.03
2018-12-20T01:45:53.175Z,27.70
2018-12-20T01:50:58.337Z,29.17
2018-12-20T01:56:03.431Z,27.30
2018-12-20T02:01:08.364Z,27.60
2018-12-20T02:06:13.331Z,27.97
2018-12-20T02:11:18.454Z,30.60
2018-12-20T02:16:23.355Z,34.97
2018-12-20T02:21:28.329Z,31.10
2018-12-20T02:26:33.245Z,29.77
2018-12-20T02:31:38.073Z,30.07
2018-12-20T02:36:43.063Z,30.87
2018-12-20T02:41:48.084Z,32.50
2018-12-20T02:46:53.098Z,30.37
2018-12-20T02:51:58.014Z,30.30
2018-12-20T02:57:03.099Z,30.33
2018-12-20T03:02:07.936Z,31.57
2018-12-20T03:07:13.134Z,28.47
2018-12-20T03:12:18.184Z,30.40
2018-12-20T03:17:23.306Z,29.40
2018-12-20T03:22:28.265Z,30.77
2018-12-20T03:27:33.316Z,30.30
2018-12-20T03:32:38.154Z,30.17
2018-12-20T03:37:43.165Z,29.17
2018-12-20T03:42:48.103Z,30.80
2018-12-20T03:47:53.214Z,28.90
2018-12-20T03:52:58.188Z,28.97
2018-12-20T03:58:04.259Z,27.40
2018-12-20T04:03:09.327Z,27.27
2018-12-20T04:08:14.436Z,29.30
2018-12-20T04:13:19.420Z,28.83
2018-12-20T04:18:26.439Z,27.90
2018-12-20T04:23:31.322Z,28.63
2018-12-20T04:28:36.236Z,26.17
2018-12-20T04:33:41.281Z,27.57
2018-12-20T04:38:46.336Z,26.73
2018-12-20T04:43:51.610Z,25.90
2018-12-20T04:48:56.991Z,24.83
2018-12-20T04:54:01.910Z,25.13
2018-12-20T04:59:07.842Z,22.73
2018-12-20T05:04:12.863Z,24.70
2018-12-20T05:09:17.684Z,24.20
2018-12-20T05:14:22.881Z,22.63
2018-12-20T05:19:28.023Z,23.70
2018-12-20T05:24:32.971Z,23.03
2018-12-20T05:29:38.226Z,23.60
2018-12-20T05:34:46.027Z,23.63
2018-12-20T05:39:51.302Z,22.47
2018-12-20T05:44:56.380Z,22.07
2018-12-20T05:50:01.380Z,24.07
2018-12-20T05:55:06.468Z,25.60
2018-12-20T06:00:11.782Z,25.43
2018-12-20T06:05:16.707Z,24.50
2018-12-20T06:10:21.682Z,29.53
2018-12-20T06:15:26.599Z,24.07
2018-12-20T06:20:32.583Z,23.73
2018-12-20T06:25:37.655Z,22.43
2018-12-20T06:30:42.594Z,20.90
2018-12-20T06:35:47.773Z,29.60
2018-12-20T06:40:52.578Z,27.43
2018-12-20T06:45:57.546Z,22.27
2018-12-20T06:51:02.452Z,22.57
2018-12-20T06:56:07.221Z,24.97
2018-12-20T07:01:12.087Z,23.33
2018-12-20T07:06:16.962Z,23.20
2018-12-20T07:11:22.003Z,22.67
2018-12-20T07:16:29.470Z,23.60
2018-12-20T07:21:33.928Z,72.63
2018-12-20T07:26:38.920Z,33.30
2018-12-20T07:31:43.933Z,21.63
2018-12-20T07:36:48.863Z,40.03
2018-12-20T07:41:53.916Z,34.73
2018-12-20T07:46:58.796Z,32.13
2018-12-20T07:52:03.684Z,22.27
2018-12-20T07:57:08.664Z,20.07
2018-12-20T08:02:13.635Z,19.53
2018-12-20T08:07:18.487Z,19.10
2018-12-20T08:12:23.504Z,19.97
2018-12-20T08:17:28.476Z,18.73
2018-12-20T08:22:33.412Z,19.47
2018-12-20T08:27:38.239Z,18.33
2018-12-20T08:32:43.308Z,19.40
2018-12-20T08:37:48.148Z,17.73
2018-12-20T08:42:53.031Z,19.37
2018-12-20T08:47:57.913Z,17.20
2018-12-20T08:53:03.015Z,17.00
2018-12-20T08:58:07.907Z,18.50
2018-12-20T09:03:12.885Z,18.07
2018-12-20T09:08:17.743Z,38.63
2018-12-20T09:13:22.696Z,22.63
2018-12-20T09:18:27.639Z,43.77
2018-12-20T09:23:33.798Z,41.73
2018-12-20T09:28:38.765Z,33.13
2018-12-20T09:33:43.822Z,20.90
2018-12-20T09:38:48.660Z,34.57
2018-12-20T09:43:53.716Z,22.70
2018-12-20T09:48:58.561Z,21.30
2018-12-20T09:54:03.465Z,21.90
2018-12-20T09:59:08.448Z,24.37
2018-12-20T10:04:13.287Z,22.50
2018-12-20T10:09:18.258Z,24.53
2018-12-20T10:14:23.278Z,25.37
2018-12-20T10:19:28.163Z,21.53
2018-12-20T10:24:33.181Z,16.40
2018-12-20T10:29:38.059Z,16.33
2018-12-20T10:34:42.949Z,16.20
2018-12-20T10:39:47.848Z,15.93
2018-12-20T10:44:52.722Z,16.73
2018-12-20T10:49:57.520Z,20.03
2018-12-20T10:55:02.580Z,35.17
2018-12-20T11:00:08.510Z,18.23
2018-12-20T11:05:18.401Z,19.57
2018-12-20T11:10:28.449Z,16.00
2018-12-20T11:15:33.436Z,30.03
2018-12-20T11:20:38.389Z,16.83
2018-12-20T11:25:43.523Z,30.83
2018-12-20T11:30:48.502Z,23.30
2018-12-20T11:35:53.438Z,19.93
2018-12-20T11:40:58.376Z,30.40
2018-12-20T11:46:03.185Z,23.83
2018-12-20T11:51:08.267Z,15.43
2018-12-20T11:56:13.104Z,13.27
2018-12-20T12:01:18.189Z,12.27
2018-12-20T12:06:23.015Z,8.80
2018-12-20T12:11:27.925Z,10.07
2018-12-20T12:16:32.811Z,8.73
2018-12-20T12:21:37.673Z,5.70
2018-12-20T12:26:42.606Z,5.40
2018-12-20T12:31:47.457Z,5.97
2018-12-20T12:36:52.403Z,5.50
2018-12-20T12:41:57.331Z,5.60
2018-12-20T12:47:04.383Z,29.37
2018-12-20T12:52:09.195Z,6.90
2018-12-20T12:57:14.243Z,12.70
2018-12-20T13:02:19.186Z,6.97
2018-12-20T13:07:24.219Z,6.27
2018-12-20T13:12:29.091Z,5.30
2018-12-20T13:17:34.124Z,6.30
2018-12-20T13:22:39.072Z,6.13
2018-12-20T13:27:44.142Z,5.23
2018-12-20T13:32:48.973Z,6.20
2018-12-20T13:37:54.009Z,6.30
2018-12-20T13:42:58.767Z,6.57
2018-12-20T13:48:03.701Z,6.30
2018-12-20T13:53:08.538Z,7.30
2018-12-20T13:58:13.291Z,7.47
2018-12-20T14:03:18.120Z,7.40
2018-12-20T14:08:22.991Z,8.50
2018-12-20T14:13:27.933Z,7.70
2018-12-20T14:18:32.681Z,9.07
2018-12-20T14:23:38.032Z,8.47
2018-12-20T14:28:42.975Z,29.67
2018-12-20T14:33:48.062Z,48.13
2018-12-20T14:38:53.088Z,21.13
2018-12-20T14:43:58.039Z,16.53
2018-12-20T14:49:02.903Z,12.10
2018-12-20T14:54:07.936Z,8.53
2018-12-20T14:59:12.887Z,5.40
2018-12-20T15:04:17.833Z,6.50
2018-12-20T15:09:22.769Z,9.57
2018-12-20T15:14:27.817Z,6.67
2018-12-20T15:19:32.576Z,9.23
2018-12-20T15:24:37.623Z,10.30
2018-12-20T15:29:42.565Z,11.63
2018-12-20T15:34:47.400Z,10.87
2018-12-20T15:39:52.353Z,15.90
2018-12-20T15:44:57.307Z,13.13
2018-12-20T15:50:02.287Z,9.37
2018-12-20T15:55:09.686Z,10.30
2018-12-20T16:00:14.715Z,10.07
2018-12-20T16:05:20.445Z,11.00
2018-12-20T16:10:25.527Z,8.40
2018-12-20T16:15:30.379Z,10.87
2018-12-20T16:20:35.444Z,7.17
2018-12-20T16:25:40.385Z,7.73
2018-12-20T16:30:45.308Z,8.93
2018-12-20T16:35:50.248Z,6.93
2018-12-20T16:40:55.015Z,7.53
2018-12-20T16:46:00.067Z,6.47
2018-12-20T16:51:05.027Z,7.07
2018-12-20T16:56:10.164Z,6.77
2018-12-20T17:01:15.120Z,6.07
2018-12-20T17:06:20.064Z,6.90
2018-12-20T17:11:24.992Z,7.10
2018-12-20T17:16:30.163Z,7.27
2018-12-20T17:21:34.985Z,7.07
2018-12-20T17:26:39.954Z,9.33
2018-12-20T17:31:44.910Z,11.23
2018-12-20T17:36:49.956Z,10.07
2018-12-20T17:41:54.800Z,11.00
2018-12-20T17:46:59.849Z,7.10
2018-12-20T17:52:04.791Z,7.03
2018-12-20T17:57:09.654Z,8.20
2018-12-20T18:02:14.595Z,7.40
2018-12-20T18:07:19.505Z,7.70
2018-12-20T18:12:24.515Z,8.47
2018-12-20T18:17:29.407Z,9.50
2018-12-20T18:22:34.293Z,7.87
2018-12-20T18:27:39.254Z,9.17
2018-12-20T18:32:44.296Z,8.90
2018-12-20T18:37:49.255Z,9.10
2018-12-20T18:42:54.299Z,9.83
2018-12-20T18:47:59.456Z,9.33
2018-12-20T18:53:05.402Z,9.67
2018-12-20T18:58:10.355Z,9.13
2018-12-20T19:03:15.230Z,9.37
2018-12-20T19:08:20.274Z,11.27
2018-12-20T19:13:25.366Z,9.90
2018-12-20T19:18:30.325Z,8.23
2018-12-20T19:23:35.219Z,8.60
2018-12-20T19:28:40.805Z,7.63
2018-12-20T19:33:45.670Z,6.70
2018-12-20T19:38:50.973Z,6.50
2018-12-20T19:43:56.543Z,5.80
2018-12-20T19:49:02.386Z,7.70
2018-12-20T19:54:07.598Z,5.77
2018-12-20T19:59:12.593Z,5.53
2018-12-20T20:04:18.649Z,5.20
2018-12-20T20:09:24.972Z,4.90
2018-12-20T20:14:29.917Z,5.40
2018-12-20T20:19:36.200Z,4.90
2018-12-20T20:24:41.547Z,5.33
2018-12-20T20:29:46.782Z,5.40
2018-12-20T20:34:51.617Z,5.60
2018-12-20T20:39:56.664Z,5.40
2018-12-20T20:45:01.833Z,5.13
2018-12-20T20:50:08.107Z,5.00
2018-12-20T20:55:13.147Z,4.53
2018-12-20T21:00:17.993Z,5.13
2018-12-20T21:05:22.864Z,4.90
2018-12-20T21:10:27.806Z,5.27
2018-12-20T21:15:32.851Z,5.07
2018-12-20T21:20:37.672Z,5.07
2018-12-20T21:25:42.647Z,6.17
2018-12-20T21:30:47.699Z,5.87
2018-12-20T21:35:52.734Z,5.67
2018-12-20T21:40:57.660Z,5.40
2018-12-20T21:46:02.635Z,6.07
2018-12-20T21:51:07.724Z,4.67
2018-12-20T21:56:13.623Z,4.67
2018-12-20T22:01:18.463Z,4.33
2018-12-20T22:06:23.343Z,4.87
2018-12-20T22:11:28.507Z,4.07
2018-12-20T22:16:33.567Z,4.87
2018-12-20T22:21:38.718Z,4.60
2018-12-20T22:26:43.561Z,5.03
2018-12-20T22:31:48.603Z,7.17
2018-12-20T22:36:53.475Z,6.00
2018-12-20T22:41:58.290Z,6.37
2018-12-20T22:47:03.240Z,7.87
2018-12-20T22:52:08.278Z,5.60
2018-12-20T22:57:13.324Z,5.63
2018-12-20T23:02:18.450Z,4.63
2018-12-20T23:07:23.348Z,6.20
2018-12-20T23:12:28.275Z,5.20
2018-12-20T23:17:33.117Z,4.53
2018-12-20T23:22:38.096Z,4.50
2018-12-20T23:27:43.034Z,4.53
2018-12-20T23:32:48.072Z,4.40
2018-12-20T23:37:52.911Z,5.17
2018-12-20T23:42:57.726Z,4.37
2018-12-20T23:48:02.717Z,4.60
2018-12-20T23:53:07.553Z,3.83
2018-12-20T23:58:12.594Z,3.70
